Time;durP1;ratioP1;P1;durP2;ratioP2;P2;SDS_P1;SDS_P2;PMS_P1;PMS_P2;Temp;Humidity;BMP_temperature;BMP_pressure;BME280_temperature;BME280_humidity;BME280_pressure;Samples;Min_cycle;Max_cycle;Signal;HPM_P1;HPM_P2
2022/03/07 00:00:50;;;;;;;20.80;12.77;;;-0.50;99.90;;;;;;4976091;28;20051;-61
2022/03/07 00:03:16;;;;;;;22.42;12.98;;;-1.30;99.90;;;;;;4976267;28;20053;-61
2022/03/07 00:05:42;;;;;;;20.10;12.50;;;;;;;;;;4975999;28;20046;-61
2022/03/07 00:08:08;;;;;;;23.15;12.50;;;-0.60;99.90;;;;;;4975867;28;20506;-61
2022/03/07 00:10:34;;;;;;;20.13;12.82;;;-1.00;99.90;;;;;;4976029;28;20043;-61
2022/03/07 00:12:59;;;;;;;26.67;14.00;;;-0.50;99.90;;;;;;4976060;28;20455;-61
2022/03/07 00:15:25;;;;;;;25.98;13.50;;;-0.90;99.90;;;;;;4976037;28;20509;-61
2022/03/07 00:17:51;;;;;;;23.90;13.07;;;-0.80;99.90;;;;;;4975629;28;20078;-61
2022/03/07 00:20:17;;;;;;;21.52;12.80;;;-0.60;99.90;;;;;;4975714;28;20038;-61
2022/03/07 00:22:44;;;;;;;21.38;13.43;;;;;;;;;;4975568;28;20085;-61
2022/03/07 00:25:10;;;;;;;21.00;13.55;;;-0.30;99.90;;;;;;4975466;28;20093;-61
2022/03/07 00:27:36;;;;;;;23.90;14.00;;;-0.10;99.90;;;;;;4975841;28;20490;-61
2022/03/07 00:30:03;;;;;;;21.92;12.63;;;0.30;99.90;;;;;;4975666;28;20122;-61
2022/03/07 00:32:29;;;;;;;20.85;13.20;;;0.10;99.90;;;;;;4958181;28;20051;-61
2022/03/07 00:34:55;;;;;;;25.08;13.35;;;-1.50;99.90;;;;;;4958321;28;20061;-61
2022/03/07 00:37:20;;;;;;;22.98;12.55;;;-0.70;99.90;;;;;;4975569;28;20043;-61
2022/03/07 00:39:46;;;;;;;18.00;13.00;;;-1.00;99.90;;;;;;4975185;28;20546;-61
2022/03/07 00:42:12;;;;;;;20.90;12.63;;;-1.30;99.90;;;;;;4974308;28;20043;-61
2022/03/07 00:44:38;;;;;;;21.77;11.68;;;;;;;;;;4975165;28;20446;-61
2022/03/07 00:47:04;;;;;;;21.92;12.18;;;-1.00;99.90;;;;;;4975319;28;20038;-62
2022/03/07 00:49:30;;;;;;;21.88;12.30;;;;;;;;;;4975219;28;20117;-61
2022/03/07 00:51:57;;;;;;;20.83;12.07;;;-1.10;99.90;;;;;;4975113;28;20445;-61
2022/03/07 00:54:22;;;;;;;22.48;13.18;;;-0.60;99.90;;;;;;4975218;28;20046;-61
2022/03/07 00:56:48;;;;;;;19.23;12.32;;;-1.10;99.90;;;;;;4975239;28;20108;-61
2022/03/07 00:59:14;;;;;;;21.10;13.20;;;;;;;;;;4975087;28;20141;-61
2022/03/07 01:01:41;;;;;;;23.70;14.55;;;-1.30;99.90;;;;;;4974701;28;20096;-61
2022/03/07 01:04:07;;;;;;;22.42;13.65;;;;;;;;;;4974985;28;20399;-61
2022/03/07 01:06:32;;;;;;;22.05;13.18;;;-1.20;99.90;;;;;;4974940;28;20031;-61
2022/03/07 01:08:58;;;;;;;23.90;14.10;;;-1.40;99.90;;;;;;4974669;28;20047;-61
2022/03/07 01:11:24;;;;;;;24.02;13.52;;;-1.20;99.90;;;;;;4975027;28;20046;-61
2022/03/07 01:13:50;;;;;;;21.85;14.57;;;-1.20;99.90;;;;;;4974945;28;20069;-61
2022/03/07 01:16:15;;;;;;;23.92;14.30;;;-1.10;99.90;;;;;;4974699;28;20042;-61
2022/03/07 01:18:41;;;;;;;23.83;14.85;;;-1.20;99.90;;;;;;4974502;28;20057;-60
2022/03/07 01:21:07;;;;;;;25.02;15.63;;;;;;;;;;4975218;28;20070;-60
2022/03/07 01:23:33;;;;;;;23.48;15.00;;;-0.60;99.90;;;;;;4974115;28;20038;-60
2022/03/07 01:25:58;;;;;;;25.30;15.77;;;-1.30;99.90;;;;;;4974929;28;20497;-60
2022/03/07 01:28:24;;;;;;;25.08;16.13;;;-1.40;99.90;;;;;;4974063;28;20352;-60
2022/03/07 01:30:50;;;;;;;24.15;14.90;;;;;;;;;;4974629;28;20125;-60
2022/03/07 01:33:16;;;;;;;26.20;15.40;;;-1.40;99.90;;;;;;4957229;28;20077;-60
2022/03/07 01:35:44;;;;;;;31.08;15.35;;;-1.70;99.90;;;;;;4974783;28;20066;-61
2022/03/07 01:38:10;;;;;;;30.83;15.95;;;;;;;;;;4974355;28;20043;-60
2022/03/07 01:40:35;;;;;;;25.17;15.48;;;-1.30;99.90;;;;;;4974458;28;20050;-60
2022/03/07 01:43:01;;;;;;;27.35;14.85;;;-1.40;99.90;;;;;;4974408;28;20047;-62
2022/03/07 01:45:27;;;;;;;25.48;13.85;;;;;;;;;;4974506;28;20039;-59
2022/03/07 01:47:53;;;;;;;23.38;15.05;;;-1.50;99.90;;;;;;4974646;28;20368;-59
2022/03/07 01:50:20;;;;;;;21.77;13.60;;;-1.20;99.90;;;;;;4974390;28;20050;-60
2022/03/07 01:52:50;;;;;;;23.95;14.25;;;-1.40;99.90;;;;;;4974564;28;20078;-60
2022/03/07 01:55:16;;;;;;;21.55;14.02;;;-2.10;99.90;;;;;;4974626;28;20403;-60
2022/03/07 01:57:45;;;;;;;27.42;13.75;;;-1.60;99.90;;;;;;4974112;28;20478;-59
2022/03/07 02:03:11;;;;;;;24.67;14.18;;;;;;;;;;5049922;23;20075;-67
2022/03/07 02:05:37;;;;;;;21.17;13.50;;;-1.90;99.90;;;;;;5031551;28;20049;-67
2022/03/07 02:08:03;;;;;;;20.98;13.50;;;;;;;;;;5013426;28;20392;-66
2022/03/07 02:10:29;;;;;;;22.73;13.93;;;-1.70;99.90;;;;;;5015182;28;20132;-66
2022/03/07 02:12:55;;;;;;;21.13;13.88;;;-1.80;99.90;;;;;;4993678;28;20440;-67
2022/03/07 02:15:21;;;;;;;24.73;13.35;;;;;;;;;;5011476;28;20042;-66
2022/03/07 02:17:47;;;;;;;22.85;14.40;;;;;;;;;;5013069;28;20046;-66
2022/03/07 02:20:14;;;;;;;22.58;14.27;;;-2.00;99.90;;;;;;5013714;28;20044;-66
2022/03/07 02:22:40;;;;;;;22.17;14.07;;;-2.40;99.90;;;;;;5030933;28;20049;-67
2022/03/07 02:25:06;;;;;;;23.40;14.48;;;;;;;;;;5031048;28;20096;-66
2022/03/07 02:27:33;;;;;;;25.35;14.82;;;-2.10;99.90;;;;;;5031069;28;20060;-66
2022/03/07 02:29:59;;;;;;;23.27;15.00;;;;;;;;;;5030799;28;20048;-66
2022/03/07 02:32:27;;;;;;;25.85;14.05;;;-1.90;99.90;;;;;;5030960;28;20049;-66
2022/03/07 02:34:54;;;;;;;21.13;13.57;;;;;;;;;;5031333;28;20037;-66
2022/03/07 02:37:20;;;;;;;21.15;13.98;;;;;;;;;;5016977;28;20053;-66
2022/03/07 02:39:45;;;;;;;22.08;14.50;;;-2.00;99.90;;;;;;5016802;28;20067;-66
2022/03/07 02:42:12;;;;;;;22.40;13.70;;;-1.90;99.90;;;;;;5034465;28;20033;-66
2022/03/07 02:44:39;;;;;;;22.70;13.95;;;-2.20;99.90;;;;;;5034287;28;20041;-66
2022/03/07 02:47:05;;;;;;;24.10;15.55;;;-1.20;99.90;;;;;;5016812;28;20049;-66
2022/03/07 02:49:31;;;;;;;25.50;15.50;;;-1.30;99.90;;;;;;5034118;28;20550;-66
2022/03/07 02:51:57;;;;;;;28.00;16.73;;;;;;;;;;5016723;28;20045;-66
2022/03/07 02:54:23;;;;;;;26.83;17.70;;;;;;;;;;5000209;28;20053;-66
2022/03/07 02:56:53;;;;;;;30.27;17.88;;;-2.30;99.90;;;;;;5034247;28;20072;-66
2022/03/07 02:59:19;;;;;;;35.35;19.20;;;;;;;;;;5033816;28;20060;-65
2022/03/07 03:01:47;;;;;;;30.92;18.52;;;;;;;;;;5016289;28;20132;-65
2022/03/07 03:04:13;;;;;;;27.92;17.65;;;-2.30;99.90;;;;;;5033815;28;20072;-65
2022/03/07 03:06:39;;;;;;;30.10;18.60;;;;;;;;;;5034415;28;20473;-65
2022/03/07 03:09:05;;;;;;;28.85;17.95;;;-2.00;99.90;;;;;;5016370;28;20443;-65
2022/03/07 03:11:32;;;;;;;33.58;18.75;;;-2.10;99.90;;;;;;5033799;28;20037;-65
2022/03/07 03:13:57;;;;;;;30.35;19.05;;;-2.00;99.90;;;;;;5033662;28;20120;-66
2022/03/07 03:16:23;;;;;;;32.85;18.08;;;;;;;;;;5033789;28;20117;-65
2022/03/07 03:18:49;;;;;;;25.75;16.98;;;;;;;;;;5016311;28;20049;-65
2022/03/07 03:21:17;;;;;;;31.13;18.27;;;;;;;;;;5015852;28;20037;-65
2022/03/07 03:23:43;;;;;;;28.67;18.02;;;-2.40;99.90;;;;;;5015845;28;20046;-65
2022/03/07 03:26:09;;;;;;;28.70;17.17;;;-2.20;99.90;;;;;;5033557;28;20041;-65
2022/03/07 03:28:35;;;;;;;27.25;17.40;;;-2.00;99.90;;;;;;5016186;28;20366;-65
2022/03/07 03:31:00;;;;;;;30.85;17.88;;;-2.20;99.90;;;;;;5033709;28;20045;-65
2022/03/07 03:33:26;;;;;;;34.20;18.30;;;-2.00;99.90;;;;;;5015777;28;20049;-65
2022/03/07 03:35:52;;;;;;;29.48;18.73;;;-1.90;99.90;;;;;;5033520;28;20041;-65
2022/03/07 03:38:18;;;;;;;28.38;18.27;;;;;;;;;;5033573;28;20378;-65
2022/03/07 03:40:45;;;;;;;27.70;17.48;;;-1.10;99.90;;;;;;5015607;28;20079;-65
2022/03/07 03:43:11;;;;;;;28.50;17.63;;;-1.50;99.90;;;;;;5033105;28;20386;-65
2022/03/07 03:45:39;;;;;;;31.23;18.45;;;;;;;;;;5015328;28;20048;-65
2022/03/07 03:48:04;;;;;;;26.80;17.20;;;-1.80;99.90;;;;;;5015684;28;20045;-65
2022/03/07 03:50:30;;;;;;;27.40;17.60;;;-1.60;99.90;;;;;;5015416;28;20060;-65
2022/03/07 03:52:57;;;;;;;28.55;17.73;;;;;;;;;;5015661;28;20132;-65
2022/03/07 03:55:24;;;;;;;29.90;18.17;;;-1.50;99.90;;;;;;5032902;28;20484;-65
2022/03/07 03:57:49;;;;;;;32.58;18.15;;;-1.60;99.90;;;;;;5015409;28;20049;-65
2022/03/07 04:00:17;;;;;;;30.02;18.13;;;-1.50;99.90;;;;;;5032999;28;20045;-66
2022/03/07 04:02:43;;;;;;;26.98;16.83;;;;;;;;;;5032772;28;20542;-65
2022/03/07 04:05:13;;;;;;;27.83;17.60;;;-1.60;99.90;;;;;;5015422;28;20041;-65
2022/03/07 04:07:40;;;;;;;27.38;16.90;;;-1.50;99.90;;;;;;5015317;28;20111;-65
2022/03/07 04:10:07;;;;;;;29.00;17.50;;;-1.80;99.90;;;;;;4998902;28;20047;-65
2022/03/07 04:12:33;;;;;;;32.45;17.70;;;-1.40;99.90;;;;;;5015066;28;20573;-66
2022/03/07 04:14:59;;;;;;;26.92;16.80;;;;;;;;;;4998626;28;20345;-65
2022/03/07 04:17:24;;;;;;;31.25;16.42;;;-1.40;99.90;;;;;;5014815;28;20052;-65
2022/03/07 04:19:50;;;;;;;25.67;16.75;;;-1.50;99.90;;;;;;5015086;28;20057;-65
2022/03/07 04:22:16;;;;;;;25.60;16.90;;;;;;;;;;4998726;28;20428;-65
2022/03/07 04:24:42;;;;;;;26.10;16.23;;;;;;;;;;5032295;28;20042;-66
2022/03/07 04:27:08;;;;;;;28.17;15.35;;;;;;;;;;5014930;28;20111;-66
2022/03/07 04:29:35;;;;;;;24.55;16.00;;;;;;;;;;5014729;28;20042;-66
2022/03/07 04:32:01;;;;;;;25.55;17.00;;;-1.90;99.90;;;;;;5014710;28;20132;-66
2022/03/07 04:34:27;;;;;;;27.10;17.45;;;;;;;;;;5014540;28;20176;-66
2022/03/07 04:36:52;;;;;;;27.90;17.90;;;-1.60;99.90;;;;;;5014691;28;20052;-66
2022/03/07 04:39:18;;;;;;;27.73;17.15;;;-1.60;99.90;;;;;;5032375;28;20050;-66
2022/03/07 04:41:45;;;;;;;28.45;17.27;;;;;;;;;;5032283;28;20357;-66
2022/03/07 04:44:11;;;;;;;28.80;17.33;;;-1.60;99.90;;;;;;5009426;28;20042;-66
2022/03/07 04:46:37;;;;;;;28.58;17.38;;;-1.70;99.90;;;;;;5009125;28;20041;-66
2022/03/07 04:49:04;;;;;;;32.03;19.02;;;-1.50;99.90;;;;;;4978629;28;20046;-66
2022/03/07 04:51:30;;;;;;;29.55;18.88;;;-1.50;99.90;;;;;;4994941;28;20385;-66
2022/03/07 04:53:55;;;;;;;33.08;19.55;;;-1.60;99.90;;;;;;4994721;28;20061;-66
2022/03/07 04:56:23;;;;;;;31.23;19.63;;;;;;;;;;4994568;28;20495;-66
2022/03/07 04:58:49;;;;;;;33.88;20.10;;;;;;;;;;4994054;28;20104;-66
2022/03/07 05:01:15;;;;;;;32.53;19.63;;;;;;;;;;4994486;28;20092;-66
2022/03/07 05:03:41;;;;;;;32.03;20.33;;;;;;;;;;4994265;28;20167;-66
2022/03/07 05:06:11;;;;;;;35.50;20.05;;;;;;;;;;4994811;28;20444;-66
2022/03/07 05:08:43;;;;;;;38.13;20.55;;;-2.30;99.90;;;;;;5012131;28;20053;-66
2022/03/07 05:11:09;;;;;;;33.92;19.70;;;-1.70;99.90;;;;;;4994560;28;20049;-69
2022/03/07 05:13:35;;;;;;;31.42;18.80;;;;;;;;;;4994687;28;20045;-67
2022/03/07 05:16:03;;;;;;;29.88;18.73;;;;;;;;;;4994533;28;20099;-66
2022/03/07 05:18:28;;;;;;;29.38;18.15;;;-1.60;99.90;;;;;;4994231;28;20351;-66
2022/03/07 05:20:54;;;;;;;31.88;19.33;;;;;;;;;;4994429;28;20053;-66
2022/03/07 05:23:20;;;;;;;32.22;18.33;;;;;;;;;;5011922;28;20038;-66
2022/03/07 05:25:46;;;;;;;30.05;18.08;;;;;;;;;;4994222;28;20219;-66
2022/03/07 05:28:12;;;;;;;31.77;18.92;;;-1.70;99.90;;;;;;4978112;28;20046;-66
2022/03/07 05:30:39;;;;;;;29.65;18.42;;;;;;;;;;5022689;28;20108;-66
2022/03/07 05:33:05;;;;;;;25.95;17.35;;;;;;;;;;5013709;28;20110;-66
2022/03/07 05:35:31;;;;;;;26.08;18.67;;;;;;;;;;5013597;28;20084;-66
2022/03/07 05:37:57;;;;;;;32.05;19.25;;;;;;;;;;5013584;28;20091;-67
2022/03/07 05:40:23;;;;;;;29.45;18.92;;;;;;;;;;5013823;28;20603;-66
2022/03/07 05:42:49;;;;;;;30.65;19.38;;;-1.70;99.90;;;;;;5013671;28;20084;-66
2022/03/07 05:45:15;;;;;;;33.08;19.33;;;;;;;;;;4997374;28;20111;-66
2022/03/07 05:47:42;;;;;;;36.78;19.83;;;-1.70;99.90;;;;;;5013971;28;20049;-66
2022/03/07 05:50:08;;;;;;;31.27;19.75;;;-2.00;99.90;;;;;;5013772;28;20081;-66
2022/03/07 05:52:35;;;;;;;27.50;18.77;;;;;;;;;;5013511;28;20504;-66
2022/03/07 05:55:01;;;;;;;34.15;19.20;;;;;;;;;;5013768;28;20392;-66
2022/03/07 05:57:27;;;;;;;29.65;18.38;;;-1.50;99.90;;;;;;5013468;28;20134;-66
2022/03/07 05:59:53;;;;;;;29.73;18.55;;;-1.80;99.90;;;;;;5013507;28;20052;-66
2022/03/07 06:02:19;;;;;;;28.70;18.60;;;;;;;;;;5031074;28;20400;-66
2022/03/07 06:04:45;;;;;;;25.58;17.00;;;;;;;;;;5013387;28;20053;-66
2022/03/07 06:07:11;;;;;;;29.55;18.30;;;;;;;;;;5031079;28;20068;-66
2022/03/07 06:09:37;;;;;;;28.75;19.23;;;;;;;;;;5032815;28;20041;-66
2022/03/07 06:12:03;;;;;;;30.60;19.70;;;;;;;;;;5035250;28;20060;-67
2022/03/07 06:14:30;;;;;;;33.40;18.98;;;;;;;;;;5034777;28;20073;-67
2022/03/07 06:16:55;;;;;;;29.90;18.45;;;-1.30;99.90;;;;;;5017088;28;20042;-67
2022/03/07 06:19:21;;;;;;;30.88;18.58;;;-1.50;99.90;;;;;;5016670;28;20048;-67
2022/03/07 06:21:47;;;;;;;29.98;17.02;;;-1.10;99.90;;;;;;5017471;28;20412;-67
2022/03/07 06:24:13;;;;;;;28.88;18.48;;;;;;;;;;5034863;28;20392;-67
2022/03/07 06:26:39;;;;;;;27.23;17.48;;;;;;;;;;5000795;28;20080;-67
2022/03/07 06:29:06;;;;;;;27.52;17.90;;;-1.10;99.90;;;;;;5034886;28;20048;-67
2022/03/07 06:31:32;;;;;;;26.38;17.45;;;;;;;;;;5034774;28;20428;-67
2022/03/07 06:33:58;;;;;;;27.92;17.80;;;;;;;;;;5016720;28;20560;-67
2022/03/07 06:36:24;;;;;;;34.67;21.15;;;;;;;;;;5017010;28;20064;-67
2022/03/07 06:38:50;;;;;;;31.88;19.75;;;-0.40;99.90;;;;;;5034401;28;20135;-67
2022/03/07 06:41:17;;;;;;;29.45;18.95;;;-1.10;99.90;;;;;;5016998;28;20033;-66
2022/03/07 06:43:43;;;;;;;29.48;19.17;;;;;;;;;;5034346;28;20045;-67
2022/03/07 06:46:09;;;;;;;30.83;18.90;;;;;;;;;;5016696;28;20045;-67
2022/03/07 06:48:35;;;;;;;29.45;17.98;;;-0.80;99.90;;;;;;5016402;28;20045;-67
2022/03/07 06:51:02;;;;;;;32.92;18.60;;;-0.70;99.90;;;;;;5034552;28;20099;-67
2022/03/07 06:53:28;;;;;;;29.48;18.02;;;;;;;;;;5000166;28;20477;-67
2022/03/07 06:56:03;;;;;;;36.90;17.70;;;-0.50;99.90;;;;;;5016296;28;20045;-67
2022/03/07 06:58:29;;;;;;;76.45;21.35;;;;;;;;;;5016238;28;20432;-67
2022/03/07 07:00:58;;;;;;;40.60;19.23;;;-0.60;99.90;;;;;;5033942;28;20084;-67
2022/03/07 07:03:24;;;;;;;42.67;20.08;;;;;;;;;;5016217;28;20053;-67
2022/03/07 07:05:50;;;;;;;33.42;17.25;;;;;;;;;;5016463;28;20045;-67
2022/03/07 07:08:16;;;;;;;30.75;18.25;;;;;;;;;;5016094;28;20038;-67
2022/03/07 07:10:42;;;;;;;34.67;17.88;;;-0.40;99.90;;;;;;5016344;28;20099;-67
2022/03/07 07:13:12;;;;;;;28.65;18.65;;;0.00;99.90;;;;;;5016172;28;20045;-67
2022/03/07 07:15:38;;;;;;;32.70;18.63;;;-0.30;99.90;;;;;;5033549;28;20038;-67
2022/03/07 07:18:04;;;;;;;27.88;18.38;;;;;;;;;;5015915;28;20083;-67
2022/03/07 07:20:30;;;;;;;29.67;18.17;;;;;;;;;;5015401;28;20120;-68
2022/03/07 07:22:56;;;;;;;30.40;18.33;;;;;;;;;;5015827;28;20033;-67
2022/03/07 07:25:23;;;;;;;30.58;18.35;;;0.40;99.90;;;;;;5015964;28;20053;-67
2022/03/07 07:27:49;;;;;;;24.25;17.05;;;;;;;;;;5015729;28;20116;-68
2022/03/07 07:30:15;;;;;;;27.67;17.80;;;;;;;;;;5015353;28;20056;-68
2022/03/07 07:32:42;;;;;;;25.63;18.33;;;0.20;99.90;;;;;;5015695;28;20084;-68
2022/03/07 07:35:09;;;;;;;28.77;17.65;;;0.50;99.90;;;;;;5033584;28;20037;-68
2022/03/07 07:37:36;;;;;;;28.67;17.33;;;;;;;;;;5015695;28;20451;-68
2022/03/07 07:40:03;;;;;;;26.48;18.05;;;;;;;;;;5033155;28;20041;-68
2022/03/07 07:42:29;;;;;;;27.17;17.25;;;0.40;99.90;;;;;;5015318;28;20145;-68
2022/03/07 07:44:55;;;;;;;30.92;17.75;;;0.10;99.90;;;;;;4999098;28;20052;-68
2022/03/07 07:47:22;;;;;;;27.05;16.63;;;0.60;99.90;;;;;;5015163;28;20038;-67
2022/03/07 07:49:48;;;;;;;27.98;16.52;;;;;;;;;;5015231;28;20041;-67
2022/03/07 07:52:16;;;;;;;25.70;16.38;;;0.80;99.90;;;;;;5015472;28;20079;-67
2022/03/07 07:54:42;;;;;;;27.45;15.75;;;;;;;;;;5015132;28;20041;-68
2022/03/07 07:57:10;;;;;;;25.52;14.93;;;1.00;99.90;;;;;;4998821;28;20065;-68
2022/03/07 07:59:36;;;;;;;27.42;14.27;;;;;;;;;;5032820;28;20452;-68
2022/03/07 08:02:02;;;;;;;21.58;13.52;;;1.50;99.90;;;;;;5032721;28;20582;-68
2022/03/07 08:04:30;;;;;;;21.85;13.25;;;1.50;99.90;;;;;;4999171;28;20096;-68
2022/03/07 08:06:59;;;;;;;24.50;13.93;;;;;;;;;;5015123;28;20041;-69
2022/03/07 08:09:25;;;;;;;20.20;13.68;;;1.20;99.90;;;;;;5015013;28;20045;-69
2022/03/07 08:11:51;;;;;;;16.92;11.95;;;;;;;;;;5014884;28;20049;-68
2022/03/07 08:14:17;;;;;;;23.95;12.95;;;;;;;;;;5015171;28;20187;-69
2022/03/07 08:16:43;;;;;;;25.45;12.98;;;2.20;99.90;;;;;;5015398;28;20127;-69
2022/03/07 08:19:09;;;;;;;18.80;11.40;;;2.10;99.90;;;;;;5014617;28;20436;-69
2022/03/07 08:21:36;;;;;;;18.67;11.73;;;2.00;99.90;;;;;;5014748;28;20492;-69
2022/03/07 08:24:03;;;;;;;18.55;11.40;;;;;;;;;;4994438;28;20068;-68
2022/03/07 08:26:29;;;;;;;15.23;10.60;;;2.40;99.90;;;;;;5009051;28;20052;-69
2022/03/07 08:28:55;;;;;;;16.77;11.07;;;;;;;;;;5001995;28;20508;-69
2022/03/07 08:31:21;;;;;;;20.52;11.48;;;;;;;;;;5002837;28;20108;-68
2022/03/07 08:33:47;;;;;;;21.98;12.77;;;;;;;;;;5006250;28;20030;-69
2022/03/07 08:36:13;;;;;;;20.10;12.98;;;2.70;99.90;;;;;;4991984;28;20111;-69
2022/03/07 08:38:39;;;;;;;22.92;14.00;;;3.10;99.90;;;;;;5022005;28;20054;-68
2022/03/07 08:41:05;;;;;;;21.08;12.88;;;2.70;99.90;;;;;;4984199;28;20408;-68
2022/03/07 08:43:31;;;;;;;22.20;15.00;;;;;;;;;;5013772;28;20049;-68
2022/03/07 08:45:57;;;;;;;21.40;15.18;;;;;;;;;;5018822;28;20405;-68
2022/03/07 08:48:23;;;;;;;21.27;14.95;;;3.70;99.90;;;;;;5011478;28;20576;-69
2022/03/07 08:50:49;;;;;;;21.02;13.75;;;5.80;99.90;;;;;;4987633;28;20085;-68
2022/03/07 08:53:16;;;;;;;18.77;11.48;;;7.50;99.90;;;;;;5015209;28;20084;-68
2022/03/07 08:55:45;;;;;;;17.38;10.90;;;;;;;;;;5018068;28;20129;-68
2022/03/07 08:58:11;;;;;;;14.95;10.52;;;;;;;;;;4997219;28;20571;-66
2022/03/07 09:00:37;;;;;;;18.15;11.30;;;10.10;99.90;;;;;;5031196;28;20083;-66
2022/03/07 09:03:06;;;;;;;15.93;10.05;;;;;;;;;;5030534;28;20054;-66
2022/03/07 09:05:32;;;;;;;13.98;10.13;;;9.70;99.90;;;;;;5031250;28;20052;-69
2022/03/07 09:07:58;;;;;;;10.52;7.22;;;;;;;;;;5030965;28;20057;-69
2022/03/07 09:10:23;;;;;;;12.93;8.02;;;9.90;99.90;;;;;;5031381;28;20041;-66
2022/03/07 09:12:49;;;;;;;14.43;9.15;;;9.40;99.90;;;;;;5003496;28;20050;-66
2022/03/07 09:15:15;;;;;;;12.45;8.73;;;;;;;;;;5000223;28;20068;-66
2022/03/07 09:17:43;;;;;;;13.75;8.18;;;8.90;99.90;;;;;;4993269;28;20057;-67
2022/03/07 09:20:11;;;;;;;13.35;8.18;;;8.80;99.90;;;;;;4977708;28;20092;-67
2022/03/07 09:22:40;;;;;;;14.35;8.10;;;;;;;;;;5010797;28;20054;-67
2022/03/07 09:25:07;;;;;;;12.23;7.60;;;8.30;99.90;;;;;;4993860;28;20454;-67
2022/03/07 09:27:33;;;;;;;12.70;7.75;;;8.00;99.90;;;;;;4977688;28;20489;-67
2022/03/07 09:29:59;;;;;;;14.52;8.40;;;;;;;;;;5011540;28;20038;-67
2022/03/07 09:32:24;;;;;;;11.98;8.20;;;8.10;99.90;;;;;;4993271;28;20477;-67
2022/03/07 09:34:54;;;;;;;14.45;8.52;;;;;;;;;;5010422;28;20056;-67
2022/03/07 09:37:20;;;;;;;13.55;8.85;;;7.20;99.90;;;;;;5011170;28;20034;-67
2022/03/07 09:39:46;;;;;;;15.77;8.48;;;8.20;99.90;;;;;;5010890;28;20137;-67
2022/03/07 09:42:12;;;;;;;17.40;8.95;;;7.80;99.90;;;;;;5024585;28;20046;-67
2022/03/07 09:44:38;;;;;;;16.77;8.10;;;;;;;;;;5034046;28;20136;-69
2022/03/07 09:47:04;;;;;;;13.68;7.43;;;7.60;99.90;;;;;;5019534;28;20069;-69
2022/03/07 09:49:31;;;;;;;12.45;8.20;;;8.10;99.90;;;;;;5019245;28;20092;-69
2022/03/07 09:51:57;;;;;;;12.27;7.60;;;7.10;99.90;;;;;;5037135;28;20224;-68
2022/03/07 09:54:23;;;;;;;12.30;7.35;;;7.10;99.90;;;;;;5037323;28;20480;-68
2022/03/07 09:56:51;;;;;;;12.90;6.45;;;6.90;99.90;;;;;;5003311;28;20079;-69
2022/03/07 09:59:18;;;;;;;11.48;6.60;;;7.10;99.90;;;;;;5037342;28;20452;-69
2022/03/07 10:01:44;;;;;;;11.02;6.20;;;7.30;99.90;;;;;;5037095;28;20133;-68
2022/03/07 10:04:12;;;;;;;10.75;6.00;;;6.80;99.90;;;;;;5019160;28;20096;-69
2022/03/07 10:06:47;;;;;;;11.50;5.80;;;7.40;99.90;;;;;;5019058;28;20064;-69
2022/03/07 10:09:22;;;;;;;13.40;5.95;;;7.70;99.90;;;;;;5037017;28;20470;-69
2022/03/07 10:11:53;;;;;;;13.83;5.43;;;7.50;99.90;;;;;;5018391;28;20053;-67
2022/03/07 10:14:42;;;;;;;8.85;5.32;;;7.50;99.90;;;;;;5036711;28;20450;-68
2022/03/07 10:17:27;;;;;;;12.80;5.65;;;7.20;99.90;;;;;;5037615;28;20381;-69
2022/03/07 10:19:55;;;;;;;11.02;5.18;;;7.50;99.90;;;;;;5018751;28;20574;-70
2022/03/07 10:22:23;;;;;;;9.02;5.28;;;7.30;99.90;;;;;;5003290;28;20059;-69
2022/03/07 10:25:07;;;;;;;12.55;4.90;;;7.60;99.90;;;;;;5036505;28;20080;-70
2022/03/07 10:27:37;;;;;;;10.85;5.60;;;7.20;99.90;;;;;;5019390;28;20056;-70
2022/03/07 10:30:12;;;;;;;14.52;5.43;;;7.60;99.90;;;;;;5036870;28;20045;-70
2022/03/07 10:32:38;;;;;;;13.43;5.93;;;;;;;;;;5036525;28;20049;-70
2022/03/07 10:35:04;;;;;;;9.13;4.72;;;;;;;;;;5018989;28;20141;-70
2022/03/07 10:37:38;;;;;;;8.38;4.80;;;7.70;99.90;;;;;;5019139;28;20041;-70
2022/03/07 10:40:16;;;;;;;9.00;5.10;;;7.60;99.90;;;;;;5018606;28;20497;-68
2022/03/07 10:42:47;;;;;;;10.43;5.70;;;8.10;99.90;;;;;;5015574;28;20034;-67
2022/03/07 10:45:13;;;;;;;9.70;6.00;;;6.90;99.90;;;;;;5016913;28;20077;-68
2022/03/07 10:47:38;;;;;;;12.75;6.45;;;7.60;99.90;;;;;;5017533;28;20044;-67
2022/03/07 10:50:07;;;;;;;10.52;6.15;;;7.60;99.90;;;;;;5016698;28;20121;-67
2022/03/07 10:52:41;;;;;;;15.13;6.05;;;7.10;99.90;;;;;;5016066;28;20041;-67
2022/03/07 10:55:10;;;;;;;13.07;6.38;;;7.70;99.90;;;;;;5000916;28;20034;-69
2022/03/07 10:57:38;;;;;;;10.80;6.43;;;7.50;99.90;;;;;;5010864;28;20112;-69
2022/03/07 11:00:13;;;;;;;12.73;6.82;;;7.40;99.90;;;;;;4993459;28;20046;-70
2022/03/07 11:02:41;;;;;;;8.13;4.93;;;7.40;99.90;;;;;;4976631;28;20065;-70
2022/03/07 11:05:09;;;;;;;8.15;5.55;;;7.70;99.90;;;;;;4993782;28;20500;-70
2022/03/07 11:07:38;;;;;;;9.55;6.55;;;7.00;99.90;;;;;;5003970;28;20050;-71
2022/03/07 11:10:08;;;;;;;11.90;6.63;;;7.60;99.90;;;;;;5030487;28;20144;-70
2022/03/07 11:12:34;;;;;;;8.52;5.85;;;;;;;;;;5024054;28;20397;-70
2022/03/07 11:15:08;;;;;;;8.65;5.63;;;7.70;99.90;;;;;;5023206;28;20436;-67
2022/03/07 11:17:40;;;;;;;9.48;5.72;;;7.60;99.90;;;;;;5027188;28;20064;-66
2022/03/07 11:20:07;;;;;;;10.80;6.40;;;7.60;99.90;;;;;;4997659;28;20485;-66
2022/03/07 11:22:34;;;;;;;9.32;6.28;;;;;;;;;;5020978;28;20453;-66
2022/03/07 11:25:00;;;;;;;10.57;6.07;;;7.70;99.90;;;;;;4994036;28;20393;-67
2022/03/07 11:27:27;;;;;;;11.07;5.38;;;;;;;;;;4986767;28;20056;-67
2022/03/07 11:29:55;;;;;;;8.68;4.22;;;;;;;;;;5024026;28;20500;-66
2022/03/07 11:32:21;;;;;;;7.63;3.60;;;8.40;99.90;;;;;;5019817;28;20058;-67
2022/03/07 11:35:02;;;;;;;6.07;4.80;;;8.00;99.90;;;;;;5007086;28;20330;-66
2022/03/07 11:37:30;;;;;;;11.13;5.78;;;8.10;99.90;;;;;;5004835;28;20520;-66
2022/03/07 11:39:58;;;;;;;12.90;5.82;;;;;;;;;;5030272;28;20049;-73
2022/03/07 11:42:38;;;;;;;7.78;5.63;;;8.00;99.90;;;;;;4980763;28;20045;-72
2022/03/07 11:45:18;;;;;;;10.73;6.05;;;7.90;99.90;;;;;;5026481;28;20037;-70
2022/03/07 11:47:50;;;;;;;10.60;5.60;;;7.80;99.90;;;;;;5027630;28;20052;-69
2022/03/07 11:50:18;;;;;;;8.57;4.22;;;8.20;99.90;;;;;;4996812;28;20485;-70
2022/03/07 11:52:44;;;;;;;7.32;4.38;;;8.00;99.90;;;;;;4976339;28;20443;-67
2022/03/07 11:55:13;;;;;;;7.95;4.20;;;8.30;99.90;;;;;;5022217;28;20045;-67
2022/03/07 11:57:45;;;;;;;5.85;4.28;;;8.00;99.90;;;;;;5008553;28;20050;-68
2022/03/07 12:00:14;;;;;;;8.50;4.93;;;8.00;99.90;;;;;;5010194;28;20069;-67
2022/03/07 12:02:45;;;;;;;10.23;4.65;;;8.30;99.90;;;;;;4994483;28;20072;-67
2022/03/07 12:05:32;;;;;;;8.52;5.07;;;8.30;99.70;;;;;;5029699;28;20049;-67
2022/03/07 12:08:10;;;;;;;9.00;5.63;;;8.60;99.90;;;;;;5011549;28;20409;-67
2022/03/07 12:10:58;;;;;;;7.65;5.20;;;8.50;98.60;;;;;;5011465;28;20045;-67
2022/03/07 12:13:24;;;;;;;7.65;4.90;;;8.60;99.90;;;;;;5008685;28;20053;-67
2022/03/07 12:15:55;;;;;;;5.68;4.43;;;8.90;99.90;;;;;;5010350;28;20505;-68
2022/03/07 12:18:21;;;;;;;8.25;4.70;;;8.70;97.50;;;;;;5009967;28;20061;-68
2022/03/07 12:21:01;;;;;;;10.35;4.20;;;9.20;99.90;;;;;;4993112;28;20094;-68
2022/03/07 12:23:29;;;;;;;6.43;4.00;;;9.40;99.90;;;;;;4992255;28;20375;-67
2022/03/07 12:26:04;;;;;;;9.57;4.80;;;9.50;97.30;;;;;;4977251;28;20128;-68
2022/03/07 12:28:36;;;;;;;7.63;4.85;;;9.40;98.40;;;;;;4995796;28;20553;-68
2022/03/07 12:31:03;;;;;;;10.65;4.40;;;9.00;93.20;;;;;;5025855;28;20048;-68
2022/03/07 12:33:28;;;;;;;7.68;4.70;;;9.10;99.90;;;;;;5011710;28;20045;-68
2022/03/07 12:36:00;;;;;;;6.82;4.20;;;9.20;99.90;;;;;;5011275;28;20045;-68
2022/03/07 12:38:26;;;;;;;8.13;4.57;;;9.20;90.20;;;;;;5011301;28;20091;-68
2022/03/07 12:40:54;;;;;;;7.25;4.30;;;9.00;97.00;;;;;;5008597;28;20107;-68
2022/03/07 12:43:20;;;;;;;6.60;4.10;;;;;;;;;;4991511;28;20053;-67
2022/03/07 12:45:47;;;;;;;6.97;4.20;;;8.80;85.30;;;;;;5008900;28;20522;-68
2022/03/07 12:48:14;;;;;;;8.50;4.88;;;9.60;88.70;;;;;;5009126;28;20092;-68
2022/03/07 12:50:40;;;;;;;9.10;4.40;;;;;;;;;;4990889;28;20201;-71
2022/03/07 12:53:12;;;;;;;6.30;4.55;;;8.70;88.20;;;;;;4994311;28;20045;-71
2022/03/07 12:55:38;;;;;;;7.90;4.78;;;;;;;;;;5022498;28;20050;-70
2022/03/07 12:58:03;;;;;;;8.95;4.90;;;8.80;99.20;;;;;;4991060;28;20087;-70
2022/03/07 13:00:31;;;;;;;7.72;4.22;;;9.10;91.50;;;;;;5027946;28;20077;-71
2022/03/07 13:02:58;;;;;;;7.47;4.15;;;;;;;;;;5010591;28;20575;-71
2022/03/07 13:05:26;;;;;;;6.25;3.90;;;;;;;;;;4991404;28;20048;-71
2022/03/07 13:07:54;;;;;;;8.13;4.43;;;8.90;81.60;;;;;;5010887;28;20397;-71
2022/03/07 13:10:23;;;;;;;9.88;4.60;;;;;;;;;;5010014;28;20444;-71
2022/03/07 13:12:56;;;;;;;9.98;4.38;;;9.10;81.70;;;;;;5029959;28;20132;-71
2022/03/07 13:15:22;;;;;;;9.27;4.28;;;;;;;;;;5013617;28;20088;-71